Time;durP1;ratioP1;P1;durP2;ratioP2;P2;SDS_P1;SDS_P2;PMS_P1;PMS_P2;Temp;Humidity;BMP_temperature;BMP_pressure;BME280_temperature;BME280_humidity;BME280_pressure;Samples;Min_cycle;Max_cycle;Signal;HPM_P1;HPM_P2
2022/02/24 00:00:13;;;;;;;10.10;3.30;;;8.50;99.90;;;;;;5093707;28;20043;-72
2022/02/24 00:02:39;;;;;;;9.05;3.67;;;8.50;99.90;;;;;;5093638;28;20016;-72
2022/02/24 00:05:05;;;;;;;11.65;3.13;;;8.50;99.90;;;;;;5094935;28;20039;-72
2022/02/24 00:07:31;;;;;;;7.72;2.85;;;8.50;99.90;;;;;;5093439;28;20118;-72
2022/02/24 00:09:57;;;;;;;10.75;3.25;;;8.50;99.90;;;;;;5076553;28;20107;-72
2022/02/24 00:12:22;;;;;;;9.77;3.08;;;8.50;99.90;;;;;;5093383;28;20371;-71
2022/02/24 00:14:49;;;;;;;12.80;3.80;;;8.50;99.90;;;;;;5093393;28;20030;-72
2022/02/24 00:17:14;;;;;;;7.70;3.05;;;8.50;99.90;;;;;;5093773;28;20020;-72
2022/02/24 00:19:40;;;;;;;8.52;3.35;;;8.40;99.90;;;;;;5094459;28;20466;-72
2022/02/24 00:22:06;;;;;;;8.20;3.10;;;8.50;99.90;;;;;;5093229;28;20525;-72
2022/02/24 00:24:31;;;;;;;13.35;3.45;;;8.50;99.90;;;;;;5093326;28;20036;-72
2022/02/24 00:26:57;;;;;;;13.38;3.67;;;8.50;99.90;;;;;;5094324;28;20104;-72
2022/02/24 00:29:22;;;;;;;24.30;4.43;;;8.50;99.90;;;;;;5093079;28;20059;-72
2022/02/24 00:31:48;;;;;;;15.75;3.83;;;8.40;99.90;;;;;;5092940;28;20474;-72
2022/02/24 00:34:15;;;;;;;12.57;3.63;;;8.40;99.90;;;;;;5092799;28;20052;-72
2022/02/24 00:36:41;;;;;;;10.65;3.80;;;8.40;99.90;;;;;;5094210;28;20099;-71
2022/02/24 00:39:07;;;;;;;20.17;4.35;;;8.40;99.90;;;;;;5076021;28;20592;-72
2022/02/24 00:41:32;;;;;;;10.05;3.85;;;8.40;99.90;;;;;;5094057;28;20052;-73
2022/02/24 00:43:58;;;;;;;13.65;3.00;;;8.40;99.90;;;;;;5093985;28;20024;-73
2022/02/24 00:46:24;;;;;;;11.82;3.60;;;8.40;99.90;;;;;;5094010;28;20028;-72
2022/02/24 00:48:49;;;;;;;10.50;3.60;;;8.30;99.90;;;;;;5093958;28;20027;-71
2022/02/24 00:51:15;;;;;;;11.45;3.28;;;8.30;99.90;;;;;;5093936;28;20032;-71
2022/02/24 00:53:41;;;;;;;10.23;3.47;;;8.20;99.90;;;;;;5075616;28;20466;-72
2022/02/24 00:56:08;;;;;;;13.88;3.58;;;8.20;99.90;;;;;;5092631;28;20029;-72
2022/02/24 00:58:34;;;;;;;12.02;3.67;;;8.10;99.90;;;;;;5092674;28;20102;-72
2022/02/24 01:01:00;;;;;;;15.40;3.85;;;8.10;99.90;;;;;;5093755;28;20468;-72
2022/02/24 01:03:25;;;;;;;9.02;3.50;;;8.00;99.90;;;;;;5092422;28;20038;-72
2022/02/24 01:05:51;;;;;;;15.63;3.85;;;8.00;99.90;;;;;;5075586;28;20059;-73
2022/02/24 01:08:16;;;;;;;9.52;3.45;;;8.00;99.90;;;;;;5075534;28;20448;-72
2022/02/24 01:10:42;;;;;;;18.05;3.65;;;8.00;99.90;;;;;;5092367;28;20020;-72
2022/02/24 01:13:08;;;;;;;11.23;3.72;;;8.00;99.90;;;;;;5093472;28;20055;-72
2022/02/24 01:15:34;;;;;;;13.48;3.15;;;8.00;99.90;;;;;;5092458;28;20032;-71
2022/02/24 01:18:00;;;;;;;11.65;3.55;;;7.90;99.90;;;;;;5092370;28;20020;-73
2022/02/24 01:20:25;;;;;;;14.68;3.67;;;8.00;99.90;;;;;;5092200;28;20023;-72
2022/02/24 01:22:51;;;;;;;10.07;3.58;;;8.00;99.90;;;;;;5092281;28;20035;-71
2022/02/24 01:25:20;;;;;;;11.45;3.47;;;8.10;99.90;;;;;;5075281;28;20043;-73
2022/02/24 01:27:46;;;;;;;10.90;3.10;;;8.10;99.90;;;;;;5093229;28;20027;-71
2022/02/24 01:30:12;;;;;;;11.70;3.08;;;8.10;99.90;;;;;;5092160;28;20024;-73
2022/02/24 01:32:38;;;;;;;11.07;3.40;;;8.10;99.90;;;;;;5091679;28;20051;-72
2022/02/24 01:35:04;;;;;;;9.93;3.53;;;8.10;99.90;;;;;;5092196;28;20020;-72
2022/02/24 01:37:30;;;;;;;11.88;3.50;;;8.20;99.90;;;;;;5075242;28;20020;-72
2022/02/24 01:39:55;;;;;;;11.88;3.33;;;8.10;99.90;;;;;;5075206;28;20085;-73
2022/02/24 01:42:21;;;;;;;11.10;3.67;;;8.20;99.90;;;;;;5075135;28;20047;-72
2022/02/24 01:44:47;;;;;;;12.82;3.33;;;8.10;99.90;;;;;;5091924;28;20027;-71
2022/02/24 01:47:13;;;;;;;9.88;3.50;;;8.10;99.90;;;;;;5093271;28;20030;-72
2022/02/24 01:49:40;;;;;;;17.05;4.53;;;8.20;99.90;;;;;;5091982;28;20023;-72
2022/02/24 01:52:07;;;;;;;18.85;4.13;;;8.20;99.90;;;;;;5092026;28;20017;-72
2022/02/24 01:54:34;;;;;;;12.60;3.85;;;8.20;99.90;;;;;;5074923;28;20062;-71
2022/02/24 01:57:01;;;;;;;13.80;3.92;;;8.20;99.90;;;;;;5075111;28;20024;-72
2022/02/24 01:59:27;;;;;;;11.02;3.60;;;8.20;99.90;;;;;;5093054;28;20052;-71
2022/02/24 02:01:53;;;;;;;10.73;3.70;;;8.20;99.90;;;;;;5091744;28;20521;-71
2022/02/24 02:04:18;;;;;;;10.18;3.88;;;8.30;99.90;;;;;;5091864;28;20111;-71
2022/02/24 02:06:44;;;;;;;11.90;4.07;;;8.20;99.90;;;;;;5093017;28;20024;-72
2022/02/24 02:09:10;;;;;;;9.48;3.72;;;8.20;99.90;;;;;;5091705;28;20397;-72
2022/02/24 02:11:36;;;;;;;11.65;3.95;;;8.30;99.90;;;;;;5093036;28;20440;-71
2022/02/24 02:14:03;;;;;;;11.43;3.60;;;8.30;99.90;;;;;;5074752;28;20489;-71
2022/02/24 02:16:28;;;;;;;9.85;3.47;;;8.30;99.90;;;;;;5092881;28;20020;-72
2022/02/24 02:18:54;;;;;;;12.65;3.83;;;8.30;99.90;;;;;;5092922;28;20021;-71
2022/02/24 02:21:19;;;;;;;14.43;3.92;;;8.30;99.90;;;;;;5092865;28;20024;-72
2022/02/24 02:23:45;;;;;;;11.60;3.55;;;8.30;99.90;;;;;;5092867;28;20036;-71
2022/02/24 02:26:10;;;;;;;9.27;3.88;;;8.30;99.90;;;;;;5074715;28;20024;-72
2022/02/24 02:28:36;;;;;;;12.57;3.92;;;8.30;99.90;;;;;;5092826;28;20111;-71
2022/02/24 02:31:02;;;;;;;10.85;3.80;;;8.30;99.90;;;;;;5092768;28;20031;-72
2022/02/24 02:33:27;;;;;;;10.90;4.13;;;8.40;99.90;;;;;;5091313;28;20047;-72
2022/02/24 02:35:53;;;;;;;11.73;3.78;;;8.30;99.90;;;;;;5091605;28;20016;-71
2022/02/24 02:38:18;;;;;;;10.07;3.33;;;8.30;99.90;;;;;;5074627;28;20028;-71
2022/02/24 02:40:44;;;;;;;17.33;3.72;;;8.30;99.90;;;;;;5093120;28;20024;-71
2022/02/24 02:43:10;;;;;;;12.00;3.92;;;8.30;99.90;;;;;;5095276;28;20031;-72
2022/02/24 02:45:38;;;;;;;18.42;3.78;;;8.30;99.90;;;;;;5095193;28;20115;-72
2022/02/24 02:48:05;;;;;;;12.15;4.15;;;8.30;99.90;;;;;;5095066;28;20374;-71
2022/02/24 02:50:30;;;;;;;10.52;3.45;;;8.30;99.90;;;;;;5078191;28;20026;-71
2022/02/24 02:53:00;;;;;;;15.27;3.60;;;8.30;99.90;;;;;;5094850;28;20115;-71
2022/02/24 02:55:25;;;;;;;11.40;3.47;;;8.30;99.90;;;;;;5094908;28;20032;-71
2022/02/24 02:57:51;;;;;;;12.10;3.03;;;8.30;99.90;;;;;;5094915;28;20069;-71
2022/02/24 03:00:17;;;;;;;9.50;3.22;;;8.30;99.90;;;;;;5094728;28;20094;-72
2022/02/24 03:02:43;;;;;;;12.82;3.55;;;8.30;99.90;;;;;;5077978;28;20024;-72
2022/02/24 03:05:09;;;;;;;11.95;3.42;;;8.30;99.90;;;;;;5094638;28;20031;-72
2022/02/24 03:07:35;;;;;;;10.20;3.42;;;8.30;99.90;;;;;;5077815;28;20030;-72
2022/02/24 03:10:01;;;;;;;13.60;3.75;;;8.30;99.90;;;;;;5095800;28;20111;-71
2022/02/24 03:12:27;;;;;;;11.60;4.20;;;8.30;99.90;;;;;;5094508;28;20024;-71
2022/02/24 03:14:52;;;;;;;8.75;2.80;;;8.30;99.90;;;;;;5094601;28;20019;-72
2022/02/24 03:17:18;;;;;;;10.25;3.33;;;8.30;99.90;;;;;;5077791;28;20020;-71
2022/02/24 03:19:43;;;;;;;11.43;3.22;;;8.30;99.90;;;;;;5094512;28;20385;-72
2022/02/24 03:22:11;;;;;;;10.38;3.53;;;8.20;99.90;;;;;;5077485;28;20492;-72
2022/02/24 03:24:37;;;;;;;14.32;3.55;;;8.30;99.90;;;;;;5095657;28;20028;-72
2022/02/24 03:27:03;;;;;;;11.65;3.90;;;8.30;99.90;;;;;;5094238;28;20027;-71
2022/02/24 03:29:29;;;;;;;12.23;3.50;;;8.20;99.90;;;;;;5077340;28;20477;-71
2022/02/24 03:31:55;;;;;;;9.50;3.60;;;8.20;99.90;;;;;;5095479;28;20020;-72
2022/02/24 03:34:20;;;;;;;15.60;3.65;;;8.20;99.90;;;;;;5095135;28;20093;-71
2022/02/24 03:36:46;;;;;;;13.30;3.22;;;8.20;99.90;;;;;;5094173;28;20100;-71
2022/02/24 03:39:11;;;;;;;11.38;3.33;;;8.20;99.90;;;;;;5094208;28;20476;-72
2022/02/24 03:41:37;;;;;;;12.52;3.60;;;8.20;99.90;;;;;;5094023;28;20527;-72
2022/02/24 03:44:03;;;;;;;12.93;3.65;;;8.20;99.90;;;;;;5093978;28;20020;-71
2022/02/24 03:46:28;;;;;;;10.82;3.55;;;8.30;99.90;;;;;;5077026;28;20020;-71
2022/02/24 03:48:54;;;;;;;10.23;3.50;;;8.20;99.90;;;;;;5076944;28;20028;-72
2022/02/24 03:51:19;;;;;;;11.73;3.17;;;8.20;99.90;;;;;;5093837;28;20032;-72
2022/02/24 03:53:45;;;;;;;12.07;3.75;;;8.20;99.90;;;;;;5093621;28;20453;-71
2022/02/24 03:56:10;;;;;;;10.80;3.45;;;8.20;99.90;;;;;;5093807;28;20019;-72
2022/02/24 03:58:36;;;;;;;12.80;3.83;;;8.20;99.90;;;;;;5093739;28;20027;-71
2022/02/24 04:01:03;;;;;;;14.52;3.20;;;8.30;99.90;;;;;;5093653;28;20024;-71
2022/02/24 04:03:29;;;;;;;9.38;3.42;;;8.20;99.90;;;;;;5093643;28;20024;-71
2022/02/24 04:05:54;;;;;;;14.52;3.65;;;8.30;99.90;;;;;;5094714;28;20140;-71
2022/02/24 04:08:20;;;;;;;10.57;3.35;;;8.30;99.90;;;;;;5093592;28;20024;-71
2022/02/24 04:10:46;;;;;;;15.57;3.20;;;8.30;99.90;;;;;;5093516;28;20024;-71
2022/02/24 04:13:12;;;;;;;11.52;3.38;;;8.30;99.90;;;;;;5094659;28;20547;-72
2022/02/24 04:15:38;;;;;;;16.15;3.58;;;8.30;99.90;;;;;;5076377;28;20020;-72
2022/02/24 04:18:04;;;;;;;9.98;3.05;;;8.30;99.90;;;;;;5094586;28;20099;-71
2022/02/24 04:20:31;;;;;;;11.13;4.00;;;8.30;99.90;;;;;;5093339;28;20080;-71
2022/02/24 04:22:56;;;;;;;10.90;3.95;;;8.20;99.90;;;;;;5093063;28;20020;-72
2022/02/24 04:25:22;;;;;;;12.57;3.78;;;8.30;99.90;;;;;;5093182;28;20032;-72
2022/02/24 04:27:49;;;;;;;8.57;3.08;;;8.30;99.90;;;;;;5093207;28;20491;-73
2022/02/24 04:30:17;;;;;;;13.10;3.42;;;8.20;99.90;;;;;;5093192;28;20035;-71
2022/02/24 04:32:43;;;;;;;9.70;3.22;;;8.20;99.90;;;;;;5076124;28;20078;-71
2022/02/24 04:35:10;;;;;;;9.48;3.67;;;8.20;99.90;;;;;;5076155;28;20023;-72
2022/02/24 04:37:36;;;;;;;11.85;3.97;;;8.20;99.90;;;;;;5094271;28;20477;-72
2022/02/24 04:40:03;;;;;;;12.38;4.38;;;8.20;99.90;;;;;;5094113;28;20035;-71
2022/02/24 04:42:29;;;;;;;11.57;3.75;;;8.30;99.90;;;;;;5075889;28;20028;-72
2022/02/24 04:44:55;;;;;;;11.68;3.22;;;8.20;99.90;;;;;;5092867;28;20028;-72
2022/02/24 04:47:20;;;;;;;11.57;4.07;;;8.20;99.90;;;;;;5075867;28;20020;-71
2022/02/24 04:49:46;;;;;;;16.52;4.25;;;8.10;99.90;;;;;;5093995;28;20034;-71
2022/02/24 04:52:11;;;;;;;9.93;3.83;;;8.20;99.90;;;;;;5075771;28;20489;-72
2022/02/24 04:54:37;;;;;;;8.25;3.13;;;8.10;99.90;;;;;;5092635;28;20089;-72
2022/02/24 04:57:03;;;;;;;11.52;3.63;;;8.20;99.90;;;;;;5092677;28;20501;-72
2022/02/24 04:59:28;;;;;;;7.88;3.15;;;8.20;99.90;;;;;;5093809;28;20436;-72
2022/02/24 05:01:54;;;;;;;7.45;3.08;;;8.20;99.90;;;;;;5092547;28;20070;-71
2022/02/24 05:04:19;;;;;;;13.75;3.65;;;8.20;99.90;;;;;;5092186;28;20033;-72
2022/02/24 05:06:45;;;;;;;18.23;3.75;;;8.20;99.90;;;;;;5092524;28;20036;-72
2022/02/24 05:09:10;;;;;;;11.40;3.20;;;8.20;99.90;;;;;;5075650;28;20050;-72
2022/02/24 05:11:36;;;;;;;11.32;2.97;;;8.20;99.90;;;;;;5093593;28;20385;-71
2022/02/24 05:14:01;;;;;;;13.10;3.33;;;8.20;99.90;;;;;;5092382;28;20168;-72
2022/02/24 05:16:27;;;;;;;11.65;3.25;;;8.10;99.90;;;;;;5093528;28;20111;-72
2022/02/24 05:18:52;;;;;;;8.93;3.20;;;8.20;99.90;;;;;;5075445;28;20486;-72
2022/02/24 05:21:18;;;;;;;12.88;3.63;;;8.20;99.90;;;;;;5092258;28;20025;-71
2022/02/24 05:23:44;;;;;;;14.35;3.97;;;8.20;99.90;;;;;;5075383;28;20024;-72
2022/02/24 05:26:09;;;;;;;9.32;3.45;;;8.20;99.90;;;;;;5093478;28;20085;-72
2022/02/24 05:28:35;;;;;;;13.50;3.67;;;8.20;99.90;;;;;;5092231;28;20046;-71
2022/02/24 05:31:01;;;;;;;15.48;3.60;;;8.20;99.90;;;;;;5092078;28;20123;-72
2022/02/24 05:33:28;;;;;;;13.70;3.70;;;8.20;99.90;;;;;;5075047;28;20043;-73
2022/02/24 05:35:53;;;;;;;12.52;3.65;;;8.20;99.90;;;;;;5092017;28;20431;-71
2022/02/24 05:38:19;;;;;;;11.85;3.28;;;8.20;99.90;;;;;;5093302;28;20012;-73
2022/02/24 05:40:45;;;;;;;14.65;3.55;;;8.20;99.90;;;;;;5075197;28;20072;-72
2022/02/24 05:43:10;;;;;;;14.57;3.75;;;8.20;99.90;;;;;;5075152;28;20474;-71
2022/02/24 05:45:36;;;;;;;15.65;3.83;;;8.20;99.90;;;;;;5093261;28;20439;-72
2022/02/24 05:48:01;;;;;;;11.30;3.92;;;8.20;99.90;;;;;;5091957;28;20039;-72
2022/02/24 05:50:27;;;;;;;11.05;3.90;;;8.20;99.90;;;;;;5091957;28;20028;-72
2022/02/24 05:52:53;;;;;;;11.50;3.80;;;8.20;99.90;;;;;;5091801;28;20116;-71
2022/02/24 05:55:18;;;;;;;13.35;4.15;;;8.20;99.90;;;;;;5091886;28;20056;-71
2022/02/24 05:57:45;;;;;;;10.30;3.42;;;8.30;99.90;;;;;;5074967;28;20020;-71
2022/02/24 06:00:12;;;;;;;16.23;4.45;;;8.20;99.90;;;;;;5091938;28;20033;-72
2022/02/24 06:02:38;;;;;;;16.58;4.13;;;8.30;99.90;;;;;;5092031;28;20442;-72
2022/02/24 06:05:05;;;;;;;16.73;4.68;;;8.20;99.90;;;;;;5092973;28;20031;-72
2022/02/24 06:07:30;;;;;;;15.55;4.90;;;8.20;99.90;;;;;;5091865;28;20500;-72
2022/02/24 06:09:56;;;;;;;17.48;5.15;;;8.20;99.90;;;;;;5092999;28;20103;-72
2022/02/24 06:12:22;;;;;;;14.77;3.75;;;8.20;99.90;;;;;;5091570;28;20046;-71
2022/02/24 06:14:47;;;;;;;20.60;4.32;;;8.20;99.90;;;;;;5093114;28;20431;-71
2022/02/24 06:17:13;;;;;;;17.65;4.03;;;8.20;99.90;;;;;;5078783;28;20067;-71
2022/02/24 06:19:42;;;;;;;9.35;4.25;;;8.20;99.90;;;;;;5095755;28;20138;-71
2022/02/24 06:22:08;;;;;;;22.73;4.78;;;8.20;99.90;;;;;;5095703;28;20039;-72
2022/02/24 06:24:33;;;;;;;17.02;4.05;;;8.10;99.90;;;;;;5095578;28;20481;-72
2022/02/24 06:26:59;;;;;;;13.75;4.13;;;8.20;99.90;;;;;;5096385;28;20020;-72
2022/02/24 06:29:24;;;;;;;15.50;4.40;;;8.20;99.90;;;;;;5078227;28;20048;-72
2022/02/24 06:31:50;;;;;;;10.40;3.88;;;8.10;99.90;;;;;;5095505;28;20031;-72
2022/02/24 06:34:15;;;;;;;13.90;4.50;;;8.10;99.90;;;;;;5096339;28;20036;-72
2022/02/24 06:36:41;;;;;;;17.83;4.72;;;8.10;99.90;;;;;;5095312;28;20028;-72
2022/02/24 06:39:07;;;;;;;16.15;5.00;;;8.10;99.90;;;;;;5078585;28;20020;-72
2022/02/24 06:41:32;;;;;;;14.35;4.72;;;8.10;99.90;;;;;;5096434;28;20374;-72
2022/02/24 06:43:58;;;;;;;14.68;4.90;;;8.20;99.90;;;;;;5095143;28;20032;-72
2022/02/24 06:46:24;;;;;;;15.10;5.05;;;8.10;99.90;;;;;;5095065;28;20031;-71
2022/02/24 06:48:49;;;;;;;16.15;3.97;;;8.20;99.90;;;;;;5077939;28;20024;-72
2022/02/24 06:51:15;;;;;;;14.45;4.30;;;8.20;99.90;;;;;;5094980;28;20512;-72
2022/02/24 06:53:40;;;;;;;8.85;3.58;;;8.30;99.90;;;;;;5094749;28;20027;-73
2022/02/24 06:56:06;;;;;;;10.90;3.70;;;8.30;99.90;;;;;;5078005;28;20012;-72
2022/02/24 06:58:32;;;;;;;14.80;3.78;;;8.30;99.90;;;;;;5094889;28;20617;-72
2022/02/24 07:00:58;;;;;;;12.68;3.53;;;8.30;99.90;;;;;;5094783;28;20074;-72
2022/02/24 07:03:24;;;;;;;10.07;3.67;;;8.30;99.90;;;;;;5077901;28;20020;-72
2022/02/24 07:05:50;;;;;;;9.02;3.72;;;8.30;99.90;;;;;;5095956;28;20038;-73
2022/02/24 07:08:15;;;;;;;10.35;3.45;;;8.30;99.90;;;;;;5077747;28;20180;-72
2022/02/24 07:10:41;;;;;;;10.10;3.42;;;8.40;99.90;;;;;;5094601;28;20089;-73
2022/02/24 07:13:06;;;;;;;12.52;3.45;;;8.50;99.90;;;;;;5077563;28;20144;-72
2022/02/24 07:15:32;;;;;;;12.02;3.58;;;8.50;99.90;;;;;;5077640;28;20550;-72
2022/02/24 07:17:58;;;;;;;9.13;3.10;;;8.50;99.90;;;;;;5094459;28;20513;-73
2022/02/24 07:20:24;;;;;;;14.13;3.67;;;8.60;99.90;;;;;;5104932;28;20030;-72
2022/02/24 07:22:49;;;;;;;12.50;3.70;;;8.70;99.90;;;;;;5114644;28;20393;-73
2022/02/24 07:25:15;;;;;;;21.38;8.57;;;8.70;99.90;;;;;;5115863;28;20031;-72
2022/02/24 07:27:42;;;;;;;12.75;4.35;;;8.70;99.90;;;;;;5113723;28;20042;-72
2022/02/24 07:30:08;;;;;;;11.93;3.35;;;8.80;99.90;;;;;;5110276;28;20032;-72
2022/02/24 07:32:34;;;;;;;13.15;3.72;;;8.90;99.90;;;;;;5095774;28;20409;-73
2022/02/24 07:35:00;;;;;;;10.90;3.22;;;9.10;99.90;;;;;;5099885;28;20016;-72
2022/02/24 07:37:26;;;;;;;9.55;3.40;;;9.30;99.90;;;;;;5097466;28;20019;-72
2022/02/24 07:39:52;;;;;;;11.75;3.35;;;9.40;99.90;;;;;;5080478;28;20420;-73
2022/02/24 07:42:17;;;;;;;9.07;3.17;;;9.30;99.90;;;;;;5101421;28;20028;-72
2022/02/24 07:44:45;;;;;;;11.05;2.85;;;9.40;99.90;;;;;;5088959;28;20389;-73
2022/02/24 07:47:11;;;;;;;13.23;3.10;;;9.60;99.90;;;;;;5105401;28;20398;-72
2022/02/24 07:49:37;;;;;;;12.93;2.83;;;9.50;99.90;;;;;;5095024;28;20024;-73
2022/02/24 07:52:03;;;;;;;8.88;2.88;;;9.50;99.90;;;;;;5096200;28;20439;-73
2022/02/24 07:54:29;;;;;;;13.23;3.40;;;9.50;99.90;;;;;;5105549;28;20020;-72
2022/02/24 07:56:54;;;;;;;9.60;2.78;;;9.50;99.90;;;;;;5094852;28;20032;-73
2022/02/24 07:59:21;;;;;;;12.45;3.00;;;9.60;99.90;;;;;;5112675;28;20366;-73
2022/02/24 08:01:47;;;;;;;10.63;3.45;;;9.60;99.90;;;;;;5102202;28;20419;-72
2022/02/24 08:04:12;;;;;;;13.40;2.85;;;9.70;99.90;;;;;;5075525;28;20020;-73
2022/02/24 08:06:38;;;;;;;10.80;2.60;;;9.80;99.90;;;;;;5095135;28;20028;-73
2022/02/24 08:09:06;;;;;;;15.02;3.00;;;10.10;99.90;;;;;;5094084;28;20028;-72
2022/02/24 08:11:32;;;;;;;10.18;3.22;;;9.90;99.90;;;;;;5108278;28;20039;-72
2022/02/24 08:13:58;;;;;;;10.52;3.35;;;10.00;99.90;;;;;;5090875;28;20031;-72
2022/02/24 08:16:24;;;;;;;10.98;2.80;;;10.10;99.90;;;;;;5114860;28;20035;-72
2022/02/24 08:18:50;;;;;;;6.55;2.50;;;9.90;99.90;;;;;;5096709;28;20031;-72
2022/02/24 08:21:15;;;;;;;9.35;2.20;;;10.20;99.90;;;;;;5076232;28;20101;-72
2022/02/24 08:23:42;;;;;;;12.82;2.90;;;10.60;99.90;;;;;;5092636;28;20055;-72
2022/02/24 08:26:08;;;;;;;10.52;2.90;;;10.70;99.90;;;;;;5092300;28;20020;-73
2022/02/24 08:28:33;;;;;;;10.35;3.28;;;10.80;99.90;;;;;;5072762;28;20027;-73
2022/02/24 08:30:59;;;;;;;9.38;2.85;;;10.70;99.90;;;;;;5099478;28;20557;-73
2022/02/24 08:33:24;;;;;;;8.02;2.42;;;10.70;99.90;;;;;;5093732;28;20180;-72
2022/02/24 08:35:50;;;;;;;8.75;2.72;;;10.90;99.90;;;;;;5072751;28;20025;-72
2022/02/24 08:38:16;;;;;;;9.18;2.45;;;10.80;99.90;;;;;;5074965;28;20055;-73
2022/02/24 08:40:42;;;;;;;10.13;2.78;;;10.70;99.90;;;;;;5097603;28;20031;-72
2022/02/24 08:43:08;;;;;;;12.38;3.03;;;10.80;99.90;;;;;;5075898;28;20031;-73
2022/02/24 08:45:35;;;;;;;9.45;2.85;;;10.70;99.90;;;;;;5081576;28;20028;-73
2022/02/24 08:48:03;;;;;;;7.82;2.58;;;10.70;99.90;;;;;;5090417;28;20028;-72
2022/02/24 08:50:28;;;;;;;10.90;2.58;;;10.50;99.90;;;;;;5084704;28;20042;-73
2022/02/24 08:52:55;;;;;;;7.45;2.20;;;10.50;99.90;;;;;;5112848;28;20027;-73
2022/02/24 08:55:21;;;;;;;7.10;2.47;;;10.70;99.90;;;;;;5091953;28;20034;-72
2022/02/24 08:57:46;;;;;;;8.07;2.53;;;10.80;99.90;;;;;;5083257;28;20388;-72
2022/02/24 09:00:12;;;;;;;13.13;3.10;;;10.50;99.90;;;;;;5101073;28;20123;-73
2022/02/24 09:02:38;;;;;;;11.68;2.50;;;10.50;99.90;;;;;;5078275;28;20109;-72
2022/02/24 09:05:04;;;;;;;5.93;2.30;;;10.40;99.90;;;;;;5088370;28;20168;-72
2022/02/24 09:07:29;;;;;;;5.28;2.50;;;10.40;99.90;;;;;;5077143;28;20485;-72
2022/02/24 09:09:55;;;;;;;12.65;2.92;;;10.60;99.90;;;;;;5098969;28;20028;-72
2022/02/24 09:12:20;;;;;;;8.38;2.40;;;10.20;99.90;;;;;;5092207;28;20524;-74
2022/02/24 09:14:46;;;;;;;7.82;2.47;;;10.30;99.90;;;;;;5081132;28;20033;-72
2022/02/24 09:17:12;;;;;;;12.40;3.00;;;10.40;99.90;;;;;;5084458;28;20036;-72
2022/02/24 09:19:39;;;;;;;13.55;3.08;;;10.40;99.90;;;;;;5068742;28;20020;-71
2022/02/24 09:22:06;;;;;;;9.80;2.28;;;10.30;99.90;;;;;;5097899;28;20140;-73
2022/02/24 09:24:33;;;;;;;8.68;3.78;;;10.40;99.90;;;;;;5096801;28;20024;-73
2022/02/24 09:26:59;;;;;;;12.20;2.45;;;10.30;99.90;;;;;;5090939;28;20051;-73
2022/02/24 09:29:24;;;;;;;6.22;2.25;;;10.30;99.90;;;;;;5087377;28;20028;-72
2022/02/24 09:31:50;;;;;;;10.60;2.35;;;10.40;99.90;;;;;;5101342;28;20055;-75
2022/02/24 09:34:16;;;;;;;5.90;2.30;;;10.50;99.90;;;;;;5094841;28;20039;-72
2022/02/24 09:36:42;;;;;;;9.35;2.55;;;10.40;99.90;;;;;;5101495;28;20023;-73
2022/02/24 09:39:08;;;;;;;6.68;2.13;;;10.20;99.90;;;;;;5074713;28;20025;-73
2022/02/24 09:41:34;;;;;;;7.53;2.53;;;10.30;99.90;;;;;;5091503;28;20498;-72
2022/02/24 09:44:00;;;;;;;6.43;2.45;;;10.20;99.90;;;;;;5095673;28;20020;-74
2022/02/24 09:46:27;;;;;;;9.68;2.45;;;10.10;99.90;;;;;;5088405;28;20033;-73
2022/02/24 09:48:55;;;;;;;9.40;2.40;;;10.20;99.90;;;;;;5093710;28;20080;-72
2022/02/24 09:51:20;;;;;;;7.38;2.28;;;10.40;99.90;;;;;;5117783;28;20076;-73
2022/02/24 09:53:48;;;;;;;8.02;2.40;;;10.50;99.90;;;;;;5109084;28;20028;-73
2022/02/24 09:56:19;;;;;;;9.82;2.58;;;10.50;99.90;;;;;;5096936;28;20374;-73
2022/02/24 09:58:47;;;;;;;11.40;2.38;;;10.60;99.90;;;;;;5096077;28;20054;-73
2022/02/24 10:01:14;;;;;;;10.13;2.42;;;10.60;99.90;;;;;;5095695;28;20492;-73
2022/02/24 10:03:44;;;;;;;9.25;2.15;;;10.40;99.90;;;;;;5075373;28;20098;-72
2022/02/24 10:06:11;;;;;;;9.60;2.13;;;10.40;99.90;;;;;;5078315;28;20021;-73
2022/02/24 10:08:40;;;;;;;7.57;2.15;;;10.20;99.90;;;;;;5096628;28;20043;-72
2022/02/24 10:11:18;;;;;;;7.22;1.90;;;10.30;99.90;;;;;;5075279;28;20506;-74
2022/02/24 10:14:08;;;;;;;7.20;1.98;;;10.20;99.90;;;;;;5091093;28;20051;-73
2022/02/24 10:16:56;;;;;;;10.80;2.40;;;10.20;99.90;;;;;;5098248;28;20452;-72
2022/02/24 10:19:28;;;;;;;7.50;2.15;;;10.10;99.90;;;;;;5115707;28;20015;-73
2022/02/24 10:22:19;;;;;;;6.82;2.20;;;10.20;99.90;;;;;;5096918;28;20449;-72
2022/02/24 10:24:54;;;;;;;10.38;2.45;;;10.20;99.90;;;;;;5115683;28;20023;-73
2022/02/24 10:27:24;;;;;;;9.63;1.85;;;10.20;99.90;;;;;;5098087;28;20062;-73
2022/02/24 10:30:13;;;;;;;5.22;2.00;;;10.20;99.90;;;;;;5102166;28;20032;-73
2022/02/24 10:32:48;;;;;;;8.15;2.22;;;10.30;99.90;;;;;;5077642;28;20041;-73
2022/02/24 10:35:34;;;;;;;9.25;2.42;;;10.20;99.90;;;;;;5076021;28;20497;-72
2022/02/24 10:38:06;;;;;;;8.05;2.22;;;10.10;99.90;;;;;;5093160;28;20481;-72
2022/02/24 10:40:34;;;;;;;8.07;2.97;;;10.10;99.90;;;;;;5099101;28;20044;-73
2022/02/24 10:43:19;;;;;;;10.90;2.60;;;10.00;99.90;;;;;;5102665;28;20028;-72
2022/02/24 10:45:47;;;;;;;6.07;2.95;;;10.10;99.90;;;;;;5094331;28;20024;-73
2022/02/24 10:48:13;;;;;;;9.77;2.92;;;10.00;99.90;;;;;;5095881;28;20028;-73
2022/02/24 10:50:55;;;;;;;10.20;3.10;;;10.10;99.90;;;;;;5083270;28;20370;-73
2022/02/24 10:53:24;;;;;;;10.25;3.53;;;10.20;99.90;;;;;;5095793;28;20126;-73
2022/02/24 10:56:03;;;;;;;9.48;3.65;;;10.40;99.90;;;;;;5091103;28;20026;-73
2022/02/24 10:58:30;;;;;;;10.20;3.85;;;10.30;99.90;;;;;;5080190;28;20420;-73
2022/02/24 11:01:18;;;;;;;11.57;3.85;;;10.20;99.90;;;;;;5074422;28;20363;-72
2022/02/24 11:03:48;;;;;;;10.07;3.80;;;10.20;99.90;;;;;;5074194;28;20024;-72
2022/02/24 11:06:14;;;;;;;11.25;3.75;;;10.10;99.90;;;;;;5085270;28;20497;-73
2022/02/24 11:08:42;;;;;;;5.72;3.08;;;10.00;99.90;;;;;;5094374;28;20024;-72
2022/02/24 11:11:08;;;;;;;10.30;3.83;;;9.80;99.90;;;;;;5094304;28;20055;-73
2022/02/24 11:13:35;;;;;;;6.45;3.15;;;9.90;99.90;;;;;;5095590;28;20151;-73
2022/02/24 11:16:02;;;;;;;10.68;3.40;;;9.90;99.90;;;;;;5084960;28;20428;-72
2022/02/24 11:18:28;;;;;;;11.57;3.67;;;9.80;99.90;;;;;;5057317;28;20367;-73
2022/02/24 11:20:55;;;;;;;12.73;3.13;;;9.80;99.90;;;;;;5098207;27;20028;-73
2022/02/24 11:23:22;;;;;;;7.15;3.22;;;9.80;99.90;;;;;;5075860;28;20042;-73
2022/02/24 11:26:30;;;;;;;8.35;2.97;;;9.80;99.90;;;;;;5089489;28;20027;-73
2022/02/24 11:29:23;;;;;;;8.20;3.40;;;9.80;99.90;;;;;;5094391;28;20489;-73
2022/02/24 11:32:03;;;;;;;11.90;3.75;;;9.70;99.90;;;;;;5104922;27;20028;-73
2022/02/24 11:35:10;;;;;;;9.50;3.28;;;9.70;99.90;;;;;;5086360;28;20040;-73
2022/02/24 11:37:38;;;;;;;6.45;4.15;;;9.50;99.90;;;;;;5114042;28;20042;-73
2022/02/24 11:40:27;;;;;;;10.20;4.22;;;9.50;99.90;;;;;;5101849;28;20022;-73
2022/02/24 11:43:15;;;;;;;13.55;4.72;;;9.50;99.90;;;;;;5115345;28;20027;-73
2022/02/24 11:45:47;;;;;;;10.05;5.60;;;9.60;99.90;;;;;;5108273;28;20491;-73
2022/02/24 11:50:56;;;;;;;8.38;5.20;;;9.60;99.90;;;;;;5110254;27;20333;-72
2022/02/24 11:53:30;;;;;;;12.55;4.55;;;9.50;99.90;;;;;;5070521;28;20025;-71
2022/02/24 11:56:18;;;;;;;8.45;4.53;;;9.60;99.90;;;;;;5102380;28;20427;-72
2022/02/24 11:58:51;;;;;;;9.63;4.20;;;9.70;99.90;;;;;;5068873;28;20035;-71
2022/02/24 12:01:38;;;;;;;8.63;4.50;;;9.90;99.90;;;;;;5099900;28;20032;-72
2022/02/24 12:04:26;;;;;;;10.43;5.13;;;10.00;99.90;;;;;;5076700;28;20024;-71
2022/02/24 12:06:56;;;;;;;8.43;4.50;;;10.10;99.90;;;;;;5100259;28;20066;-74
2022/02/24 12:09:32;;;;;;;9.80;4.65;;;10.10;99.90;;;;;;5094687;28;20046;-72
2022/02/24 12:12:11;;;;;;;12.15;5.28;;;10.20;99.90;;;;;;5092906;28;20025;-71
2022/02/24 12:14:39;;;;;;;11.85;5.30;;;10.30;99.90;;;;;;5100314;28;20071;-72
2022/02/24 12:17:08;;;;;;;9.35;5.20;;;10.10;99.90;;;;;;5100747;28;20024;-71
2022/02/24 12:19:47;;;;;;;15.30;6.50;;;10.00;99.90;;;;;;5078236;28;20039;-71
2022/02/24 12:22:21;;;;;;;12.27;5.65;;;10.10;99.90;;;;;;5078729;28;20379;-71
2022/02/24 12:24:53;;;;;;;14.05;6.20;;;10.00;99.90;;;;;;5102195;28;20032;-71
2022/02/24 12:27:28;;;;;;;7.82;5.25;;;10.10;99.90;;;;;;5075819;28;20392;-71
2022/02/24 12:29:56;;;;;;;9.48;4.93;;;10.30;99.90;;;;;;5079431;28;20398;-71
2022/02/24 12:32:21;;;;;;;11.55;5.47;;;10.40;99.90;;;;;;5093525;28;20112;-71
2022/02/24 12:34:47;;;;;;;12.35;5.07;;;10.40;99.90;;;;;;5085059;28;20064;-71
2022/02/24 12:37:13;;;;;;;12.55;4.88;;;10.40;99.90;;;;;;5094734;28;20031;-71
2022/02/24 12:39:40;;;;;;;12.27;4.55;;;10.50;99.90;;;;;;5091830;28;20024;-71
2022/02/24 12:42:08;;;;;;;10.73;4.03;;;10.60;99.90;;;;;;5095950;28;20048;-72
2022/02/24 12:44:35;;;;;;;12.02;4.22;;;10.70;99.90;;;;;;5089674;28;20077;-72
2022/02/24 12:47:02;;;;;;;11.50;3.83;;;10.70;99.90;;;;;;5091089;28;20052;-72
2022/02/24 12:49:39;;;;;;;9.70;3.92;;;10.70;99.90;;;;;;5097788;28;20043;-72
2022/02/24 12:52:05;;;;;;;10.82;3.60;;;10.70;99.90;;;;;;5067894;28;20025;-71